createdAt,value
2023-03-24T00:00:31.622Z,100.00
2023-03-24T00:03:03.389Z,100.00
2023-03-24T00:05:31.114Z,100.00
2023-03-24T00:08:02.131Z,100.00
2023-03-24T00:10:35.066Z,99.25
2023-03-24T00:13:02.444Z,98.33
2023-03-24T00:15:29.590Z,98.04
2023-03-24T00:17:58.516Z,97.53
2023-03-24T00:20:27.357Z,97.29
2023-03-24T00:22:59.328Z,96.94
2023-03-24T00:25:36.686Z,97.21
2023-03-24T00:28:07.469Z,96.92
2023-03-24T00:30:35.626Z,96.97
2023-03-24T00:33:03.318Z,96.79
2023-03-24T00:35:30.419Z,97.17
2023-03-24T00:37:57.575Z,97.03
2023-03-24T00:40:25.299Z,96.93
2023-03-24T00:42:52.285Z,97.09
2023-03-24T00:45:23.671Z,97.19
2023-03-24T00:47:54.653Z,97.40
2023-03-24T00:50:33.753Z,97.24
2023-03-24T00:53:02.302Z,96.96
2023-03-24T00:55:29.416Z,97.18
2023-03-24T00:57:56.482Z,96.64
2023-03-24T01:00:26.396Z,96.65
2023-03-24T01:02:57.231Z,96.78
2023-03-24T01:05:29.295Z,96.67
2023-03-24T01:07:59.277Z,96.40
2023-03-24T01:10:27.255Z,95.89
2023-03-24T01:12:58.420Z,95.53
2023-03-24T01:15:29.911Z,95.14
2023-03-24T01:17:57.967Z,94.59
2023-03-24T01:20:26.034Z,94.63
2023-03-24T01:22:53.564Z,93.84
2023-03-24T01:25:23.525Z,93.95
2023-03-24T01:27:52.891Z,94.18
2023-03-24T01:30:24.874Z,94.49
2023-03-24T01:32:53.522Z,94.58
2023-03-24T01:35:22.772Z,95.01
2023-03-24T01:37:50.117Z,95.60
2023-03-24T01:40:28.323Z,95.96
2023-03-24T01:42:55.717Z,96.12
2023-03-24T01:46:19.823Z,96.50
2023-03-24T01:48:51.203Z,97.11
2023-03-24T01:51:35.749Z,97.30
2023-03-24T01:54:07.582Z,97.66
2023-03-24T01:56:39.401Z,97.74
2023-03-24T01:59:13.189Z,97.51
2023-03-24T02:01:40.374Z,97.73
2023-03-24T02:04:09.261Z,98.02
2023-03-24T02:06:41.566Z,98.09
2023-03-24T02:09:10.687Z,98.24
2023-03-24T02:11:39.548Z,98.27
2023-03-24T02:14:08.924Z,98.04
2023-03-24T02:16:52.474Z,98.18
2023-03-24T02:19:38.801Z,97.89
2023-03-24T02:22:11.342Z,97.73
2023-03-24T02:24:59.783Z,97.79
2023-03-24T02:28:07.754Z,97.60
2023-03-24T02:30:49.035Z,97.42
2023-03-24T02:33:55.448Z,97.65
2023-03-24T02:36:38.024Z,97.65
2023-03-24T02:39:38.368Z,97.85
2023-03-24T02:42:29.060Z,97.78
2023-03-24T02:45:22.854Z,98.04
2023-03-24T02:48:23.199Z,97.91
2023-03-24T02:51:02.076Z,98.01
2023-03-24T02:53:44.460Z,98.19
2023-03-24T02:56:30.305Z,98.19
2023-03-24T02:59:04.763Z,98.24
2023-03-24T03:01:41.577Z,97.98
2023-03-24T03:04:23.476Z,98.05
2023-03-24T03:06:57.752Z,98.14
2023-03-24T03:09:28.214Z,98.30
2023-03-24T03:11:58.413Z,98.28
2023-03-24T03:14:49.880Z,99.35
2023-03-24T03:17:30.910Z,98.52
2023-03-24T03:20:08.386Z,99.40
2023-03-24T03:22:49.923Z,99.08
2023-03-24T03:25:23.401Z,99.08
2023-03-24T03:27:54.021Z,99.34
2023-03-24T03:30:40.297Z,99.70
2023-03-24T03:33:18.470Z,99.70
2023-03-24T03:36:11.779Z,99.75
2023-03-24T03:38:48.193Z,99.82
2023-03-24T03:41:18.608Z,99.72
2023-03-24T03:43:48.396Z,100.00
2023-03-24T03:46:17.249Z,100.00
2023-03-24T03:48:45.744Z,100.00
2023-03-24T03:51:14.680Z,100.00
2023-03-24T03:53:58.726Z,100.00
2023-03-24T03:56:30.136Z,100.00
2023-03-24T03:58:58.459Z,100.00
2023-03-24T04:01:30.445Z,100.00
2023-03-24T04:04:40.497Z,100.00
2023-03-24T04:07:28.580Z,100.00
2023-03-24T04:10:57.589Z,100.00
2023-03-24T04:13:42.947Z,100.00
2023-03-24T04:16:40.509Z,100.00
2023-03-24T04:19:35.245Z,100.00
2023-03-24T04:22:20.115Z,100.00
2023-03-24T04:25:20.338Z,100.00
2023-03-24T04:28:01.374Z,100.00
2023-03-24T04:30:50.871Z,100.00
2023-03-24T04:33:29.279Z,100.00
2023-03-24T04:36:29.577Z,100.00
2023-03-24T04:38:58.212Z,100.00
2023-03-24T04:41:28.068Z,100.00
2023-03-24T04:43:58.143Z,99.89
2023-03-24T04:46:26.274Z,99.94
2023-03-24T04:48:53.201Z,99.91
2023-03-24T04:51:21.305Z,100.00
2023-03-24T04:53:49.156Z,100.00
2023-03-24T04:56:40.691Z,100.00
2023-03-24T04:59:07.685Z,100.00
2023-03-24T05:01:37.726Z,100.00
2023-03-24T05:04:06.117Z,100.00
2023-03-24T05:06:33.535Z,100.00
2023-03-24T05:09:00.537Z,100.00
2023-03-24T05:11:28.717Z,100.00
2023-03-24T05:13:55.833Z,100.00
2023-03-24T05:16:22.798Z,100.00
2023-03-24T05:18:49.757Z,100.00
2023-03-24T05:21:16.699Z,100.00
2023-03-24T05:23:43.642Z,100.00
2023-03-24T05:26:10.553Z,100.00
2023-03-24T05:28:37.525Z,99.76
2023-03-24T05:31:04.534Z,99.75
2023-03-24T05:33:32.762Z,99.63
2023-03-24T05:36:00.203Z,99.26
2023-03-24T05:38:27.217Z,99.46
2023-03-24T05:41:01.084Z,99.64
2023-03-24T05:43:28.727Z,99.52
2023-03-24T05:45:56.532Z,99.46
2023-03-24T05:48:23.776Z,99.57
2023-03-24T05:50:53.255Z,99.28
2023-03-24T05:53:21.095Z,99.53
2023-03-24T05:55:48.063Z,100.00
2023-03-24T05:58:16.000Z,99.50
2023-03-24T06:00:42.901Z,99.59
2023-03-24T06:03:09.917Z,99.88
2023-03-24T06:05:37.360Z,99.68
2023-03-24T06:08:04.591Z,99.52
2023-03-24T06:10:31.705Z,99.05
2023-03-24T06:12:58.615Z,98.86
2023-03-24T06:15:28.262Z,98.73
2023-03-24T06:17:55.685Z,98.70
2023-03-24T06:20:22.637Z,98.46
2023-03-24T06:22:49.992Z,98.75
2023-03-24T06:25:20.760Z,98.53
2023-03-24T06:27:47.683Z,98.67
2023-03-24T06:30:17.923Z,98.39
2023-03-24T06:32:48.799Z,98.60
2023-03-24T06:35:17.920Z,98.24
2023-03-24T06:37:45.588Z,98.17
2023-03-24T06:40:16.111Z,98.16
2023-03-24T06:42:43.132Z,97.93
2023-03-24T06:45:10.739Z,97.75
2023-03-24T06:47:38.075Z,97.69
2023-03-24T06:50:07.355Z,97.12
2023-03-24T06:52:35.813Z,97.13
2023-03-24T06:55:03.711Z,97.03
2023-03-24T06:57:31.084Z,96.92
2023-03-24T06:59:58.095Z,96.62
2023-03-24T07:02:25.513Z,96.81
2023-03-24T07:04:54.383Z,97.09
2023-03-24T07:07:57.046Z,97.13
2023-03-24T07:10:10.880Z,97.15
2023-03-24T07:12:37.853Z,97.06
2023-03-24T07:15:07.488Z,97.14
2023-03-24T07:17:34.931Z,96.95
2023-03-24T07:20:02.095Z,96.66
2023-03-24T07:22:29.078Z,96.56
2023-03-24T07:24:58.342Z,96.03
2023-03-24T07:27:25.285Z,95.44
2023-03-24T07:29:52.229Z,95.33
2023-03-24T07:32:19.860Z,94.58
2023-03-24T07:34:47.375Z,93.68
2023-03-24T07:37:14.299Z,93.44
2023-03-24T07:39:41.419Z,93.61
2023-03-24T07:42:09.470Z,93.05
2023-03-24T07:44:37.910Z,92.25
2023-03-24T07:47:05.057Z,91.04
2023-03-24T07:49:32.198Z,90.58
2023-03-24T07:51:59.406Z,90.05
2023-03-24T07:54:27.526Z,89.41
2023-03-24T07:56:54.474Z,88.89
2023-03-24T07:59:21.836Z,89.54
2023-03-24T08:03:21.496Z,89.04
2023-03-24T08:04:37.508Z,89.51
2023-03-24T08:07:05.609Z,89.55
2023-03-24T08:09:32.568Z,89.72
2023-03-24T08:12:06.905Z,90.27
2023-03-24T08:14:40.674Z,90.53
2023-03-24T08:17:07.728Z,91.84
2023-03-24T08:19:35.313Z,92.28
2023-03-24T08:22:04.403Z,92.65
2023-03-24T08:24:31.706Z,93.05
2023-03-24T08:27:03.002Z,93.19
2023-03-24T08:29:30.301Z,93.91
2023-03-24T08:31:57.210Z,94.72
2023-03-24T08:34:25.267Z,95.19
2023-03-24T08:36:52.219Z,95.58
2023-03-24T08:39:20.517Z,94.59
2023-03-24T08:41:47.622Z,94.67
2023-03-24T08:44:14.528Z,94.17
2023-03-24T08:46:41.514Z,93.54
2023-03-24T08:49:09.048Z,92.94
2023-03-24T08:51:36.076Z,90.89
2023-03-24T08:54:04.030Z,90.40
2023-03-24T08:56:31.110Z,90.12
2023-03-24T08:58:58.210Z,89.48
2023-03-24T09:01:25.831Z,88.20
2023-03-24T09:03:53.507Z,87.37
2023-03-24T09:06:20.624Z,86.53
2023-03-24T09:08:47.780Z,86.08
2023-03-24T09:11:21.323Z,83.47
2023-03-24T09:13:49.107Z,82.19
2023-03-24T09:16:17.192Z,82.89
2023-03-24T09:18:44.977Z,81.10
2023-03-24T09:21:12.405Z,79.87
2023-03-24T09:23:39.590Z,79.56
2023-03-24T09:26:07.692Z,79.72
2023-03-24T09:28:35.023Z,79.08
2023-03-24T09:31:06.252Z,79.46
2023-03-24T09:33:37.448Z,79.98
2023-03-24T09:36:05.401Z,79.75
2023-03-24T09:38:33.840Z,79.23
2023-03-24T09:41:03.312Z,78.74
2023-03-24T09:43:52.974Z,79.02
2023-03-24T09:46:45.988Z,79.03
2023-03-24T09:49:24.241Z,79.52
2023-03-24T09:52:00.660Z,79.01
2023-03-24T09:54:36.866Z,79.27
2023-03-24T09:57:05.231Z,79.16
2023-03-24T09:59:39.344Z,79.87
2023-03-24T10:02:21.748Z,78.03
2023-03-24T10:04:50.243Z,75.90
2023-03-24T10:07:47.203Z,75.09
2023-03-24T10:10:57.969Z,73.21
2023-03-24T10:13:37.161Z,73.39
2023-03-24T10:16:27.284Z,72.35
2023-03-24T10:19:21.217Z,70.77
2023-03-24T10:22:13.192Z,70.28
2023-03-24T10:24:54.937Z,68.65
2023-03-24T10:27:36.474Z,67.22
2023-03-24T10:30:17.628Z,66.21
2023-03-24T10:32:45.660Z,66.52
2023-03-24T10:35:23.110Z,66.77
2023-03-24T10:37:52.607Z,67.25
2023-03-24T10:40:27.345Z,66.09
2023-03-24T10:43:07.173Z,65.54
2023-03-24T10:45:45.032Z,65.46
2023-03-24T10:48:15.050Z,64.45
2023-03-24T10:50:45.529Z,62.99
2023-03-24T10:53:19.433Z,63.18
2023-03-24T10:55:48.293Z,61.64
2023-03-24T10:58:37.033Z,60.61
2023-03-24T11:01:23.118Z,63.41
2023-03-24T11:03:51.335Z,64.98
2023-03-24T11:06:21.868Z,64.60
2023-03-24T11:09:11.908Z,64.53
2023-03-24T11:11:38.891Z,63.92
2023-03-24T11:14:26.182Z,63.90
2023-03-24T11:17:10.897Z,63.21
2023-03-24T11:19:38.181Z,63.96
2023-03-24T11:22:07.633Z,63.66
2023-03-24T11:24:38.797Z,62.68
2023-03-24T11:27:06.315Z,61.15
2023-03-24T11:29:39.045Z,60.70
2023-03-24T11:32:15.174Z,61.45
2023-03-24T11:34:49.196Z,62.31
2023-03-24T11:37:24.106Z,63.35
2023-03-24T11:40:26.086Z,62.50
2023-03-24T11:43:00.593Z,61.46
2023-03-24T11:45:41.248Z,62.24
2023-03-24T11:48:41.987Z,70.07
2023-03-24T11:51:12.958Z,74.71
2023-03-24T11:53:48.777Z,74.70
2023-03-24T11:56:46.156Z,76.36
2023-03-24T11:59:31.725Z,74.75
2023-03-24T12:02:25.697Z,74.15
2023-03-24T12:05:17.156Z,72.45
2023-03-24T12:08:04.931Z,75.41
2023-03-24T12:11:04.295Z,81.69
2023-03-24T12:13:37.770Z,84.77
2023-03-24T12:16:40.123Z,86.99
2023-03-24T12:19:39.933Z,90.17
2023-03-24T12:22:43.764Z,92.71
2023-03-24T12:25:46.238Z,95.03
2023-03-24T12:28:51.734Z,98.85
2023-03-24T12:31:57.339Z,99.29
2023-03-24T12:35:24.379Z,97.15
2023-03-24T12:38:17.383Z,95.21
2023-03-24T12:41:04.380Z,94.58
2023-03-24T12:43:57.303Z,93.77
2023-03-24T12:46:26.302Z,94.18
2023-03-24T12:49:00.154Z,93.45
2023-03-24T12:52:05.586Z,91.26
2023-03-24T12:55:06.476Z,90.52
2023-03-24T12:58:05.291Z,87.31
2023-03-24T13:00:38.566Z,84.57
2023-03-24T13:03:15.088Z,85.00
2023-03-24T13:05:51.667Z,85.52
2023-03-24T13:08:32.540Z,84.50
2023-03-24T13:11:19.282Z,82.06
2023-03-24T13:13:53.886Z,78.25
2023-03-24T13:16:25.130Z,79.16
2023-03-24T13:19:00.098Z,79.90
2023-03-24T13:21:29.777Z,78.57
2023-03-24T13:24:14.303Z,78.31
2023-03-24T13:26:51.468Z,77.03
2023-03-24T13:29:48.991Z,80.92
2023-03-24T13:32:24.251Z,83.79
2023-03-24T13:35:44.326Z,84.37
2023-03-24T13:38:39.695Z,84.35
2023-03-24T13:41:12.702Z,85.78
2023-03-24T13:43:51.938Z,86.53
2023-03-24T13:46:19.243Z,85.94
2023-03-24T13:48:52.543Z,81.89
2023-03-24T13:51:27.168Z,79.67
2023-03-24T13:54:18.776Z,77.98
2023-03-24T13:56:54.523Z,77.48
2023-03-24T14:00:12.288Z,77.53
2023-03-24T14:02:50.510Z,76.99
2023-03-24T14:05:24.357Z,74.35
2023-03-24T14:08:10.497Z,73.66
2023-03-24T14:10:44.365Z,75.20
2023-03-24T14:13:14.253Z,75.73
2023-03-24T14:15:45.125Z,76.00
2023-03-24T14:18:25.213Z,76.54
2023-03-24T14:20:58.807Z,77.73
2023-03-24T14:23:49.505Z,77.83
2023-03-24T14:26:37.225Z,76.40
2023-03-24T14:29:04.820Z,74.82
2023-03-24T14:31:34.752Z,74.70
2023-03-24T14:34:21.394Z,75.08
2023-03-24T14:37:00.327Z,73.38
2023-03-24T14:39:47.445Z,69.46
2023-03-24T14:42:35.726Z,70.58
2023-03-24T14:45:07.299Z,70.92
2023-03-24T14:47:41.337Z,70.64
2023-03-24T14:50:29.935Z,70.05
2023-03-24T14:53:44.128Z,66.85
2023-03-24T14:56:16.897Z,68.13
2023-03-24T14:58:51.798Z,68.48
2023-03-24T15:01:18.848Z,68.46
2023-03-24T15:04:21.985Z,68.47
2023-03-24T15:06:49.501Z,68.28
2023-03-24T15:09:18.605Z,68.25
2023-03-24T15:11:48.633Z,67.92
2023-03-24T15:14:26.302Z,68.31
2023-03-24T15:16:58.376Z,67.93
2023-03-24T15:19:28.842Z,68.81
2023-03-24T15:22:06.608Z,68.56
2023-03-24T15:24:37.622Z,66.77
2023-03-24T15:27:04.461Z,66.37
2023-03-24T15:29:31.782Z,65.11
2023-03-24T15:31:58.840Z,65.93
2023-03-24T15:34:43.234Z,66.69
2023-03-24T15:37:24.197Z,66.68
2023-03-24T15:40:01.841Z,66.33
2023-03-24T15:42:33.616Z,65.71
2023-03-24T15:45:34.674Z,65.49
2023-03-24T15:48:13.724Z,65.79
2023-03-24T15:50:55.652Z,65.87
2023-03-24T15:53:30.428Z,66.10
2023-03-24T15:56:06.647Z,66.96
2023-03-24T15:58:47.093Z,66.84
2023-03-24T16:01:19.259Z,67.57
2023-03-24T16:03:48.658Z,67.53
2023-03-24T16:06:26.739Z,69.11
2023-03-24T16:08:53.810Z,71.85
2023-03-24T16:11:21.896Z,73.93
2023-03-24T16:13:48.785Z,73.35
2023-03-24T16:16:16.153Z,74.32
2023-03-24T16:18:49.024Z,74.82
2023-03-24T16:21:22.296Z,76.56
2023-03-24T16:23:51.948Z,77.50
2023-03-24T16:26:24.144Z,78.10
2023-03-24T16:28:53.100Z,79.17
2023-03-24T16:31:31.075Z,80.24
2023-03-24T16:33:58.556Z,83.65
2023-03-24T16:36:29.168Z,84.43
2023-03-24T16:38:58.925Z,86.28
2023-03-24T16:41:26.333Z,86.60
2023-03-24T16:43:54.224Z,87.75
2023-03-24T16:46:34.053Z,88.57
2023-03-24T16:49:03.971Z,88.08
2023-03-24T16:51:31.063Z,88.01
2023-03-24T16:53:58.538Z,87.18
2023-03-24T16:56:26.701Z,86.97
2023-03-24T16:58:54.791Z,87.97
2023-03-24T17:01:39.552Z,86.62
2023-03-24T17:04:16.548Z,87.32
2023-03-24T17:06:53.037Z,86.96
2023-03-24T17:09:21.079Z,87.53
2023-03-24T17:11:53.234Z,88.82
2023-03-24T17:14:20.309Z,88.28
2023-03-24T17:16:49.641Z,87.89
2023-03-24T17:19:20.379Z,88.33
2023-03-24T17:22:07.134Z,88.14
2023-03-24T17:24:36.880Z,88.37
2023-03-24T17:27:06.498Z,87.75
2023-03-24T17:29:33.445Z,87.83
2023-03-24T17:32:00.793Z,87.57
2023-03-24T17:34:28.731Z,87.68
2023-03-24T17:36:56.682Z,86.97
2023-03-24T17:39:24.542Z,87.34
2023-03-24T17:41:52.366Z,87.29
2023-03-24T17:44:19.588Z,87.17
2023-03-24T17:46:46.847Z,86.67
2023-03-24T17:49:13.985Z,86.63
2023-03-24T17:51:41.611Z,86.04
2023-03-24T17:54:12.154Z,85.97
2023-03-24T17:56:40.163Z,85.67
2023-03-24T17:59:07.628Z,84.47
2023-03-24T18:01:35.467Z,83.18
2023-03-24T18:04:02.593Z,83.09
2023-03-24T18:06:31.017Z,82.67
2023-03-24T18:08:58.222Z,82.59
2023-03-24T18:11:26.123Z,82.92
2023-03-24T18:13:53.078Z,82.86
2023-03-24T18:16:21.792Z,82.75
2023-03-24T18:18:51.496Z,82.70
2023-03-24T18:21:19.575Z,82.50
2023-03-24T18:23:47.270Z,82.50
2023-03-24T18:26:15.570Z,82.42
2023-03-24T18:28:44.252Z,82.27
2023-03-24T18:31:19.061Z,82.63
2023-03-24T18:33:51.321Z,83.38
2023-03-24T18:36:21.722Z,82.78
2023-03-24T18:38:49.777Z,82.86
2023-03-24T18:41:18.828Z,83.28
2023-03-24T18:43:48.486Z,83.37
2023-03-24T18:46:16.870Z,84.21
2023-03-24T18:48:44.489Z,85.75
2023-03-24T18:51:12.408Z,86.65
2023-03-24T18:53:40.239Z,86.84
2023-03-24T18:56:08.864Z,85.84
2023-03-24T18:58:38.679Z,84.72
2023-03-24T19:01:13.119Z,84.19
2023-03-24T19:03:44.680Z,84.42
2023-03-24T19:06:15.301Z,84.45
2023-03-24T19:08:46.959Z,85.12
2023-03-24T19:11:16.382Z,85.33
2023-03-24T19:13:50.400Z,85.48
2023-03-24T19:16:20.292Z,85.60
2023-03-24T19:18:48.924Z,85.66
2023-03-24T19:21:17.689Z,85.95
2023-03-24T19:23:47.281Z,86.36
2023-03-24T19:26:16.753Z,87.18
2023-03-24T19:28:44.850Z,87.58
2023-03-24T19:31:18.105Z,87.58
2023-03-24T19:33:47.662Z,87.32
2023-03-24T19:36:16.789Z,86.71
2023-03-24T19:38:45.000Z,86.83
2023-03-24T19:41:15.667Z,86.85
2023-03-24T19:43:43.525Z,86.74
2023-03-24T19:46:11.394Z,86.79
2023-03-24T19:48:38.978Z,87.00
2023-03-24T19:51:06.738Z,86.22
2023-03-24T19:53:34.328Z,86.52
2023-03-24T19:56:02.586Z,87.04
2023-03-24T19:58:30.220Z,86.10
2023-03-24T20:00:58.140Z,86.34
2023-03-24T20:03:26.262Z,86.30
2023-03-24T20:05:53.989Z,85.79
2023-03-24T20:08:24.545Z,85.87
2023-03-24T20:10:52.804Z,85.16
2023-03-24T20:13:20.497Z,84.60
2023-03-24T20:15:48.803Z,83.35
2023-03-24T20:18:16.937Z,82.80
2023-03-24T20:20:44.175Z,81.22
2023-03-24T20:23:11.585Z,81.71
2023-03-24T20:25:42.633Z,81.61
2023-03-24T20:28:09.739Z,81.90
2023-03-24T20:30:36.648Z,81.79
2023-03-24T20:33:03.728Z,80.86
2023-03-24T20:35:30.769Z,81.22
2023-03-24T20:37:57.961Z,80.79
2023-03-24T20:40:25.899Z,80.55
2023-03-24T20:42:52.850Z,80.23
2023-03-24T20:45:20.112Z,80.26
2023-03-24T20:47:47.621Z,80.31
2023-03-24T20:50:14.711Z,81.17
2023-03-24T20:52:42.673Z,80.82
2023-03-24T20:55:11.685Z,81.24
2023-03-24T20:57:38.749Z,81.29
2023-03-24T21:00:13.916Z,81.33
2023-03-24T21:02:43.508Z,81.62
2023-03-24T21:05:10.996Z,81.80
2023-03-24T21:07:38.719Z,82.03
2023-03-24T21:10:06.981Z,82.02
2023-03-24T21:12:34.741Z,82.34
2023-03-24T21:15:01.698Z,82.25
2023-03-24T21:17:32.594Z,82.30
2023-03-24T21:20:07.002Z,82.32
2023-03-24T21:22:47.622Z,82.77
2023-03-24T21:25:16.059Z,83.14
2023-03-24T21:27:43.022Z,83.39
2023-03-24T21:30:11.713Z,83.03
2023-03-24T21:32:38.923Z,83.61
2023-03-24T21:35:07.118Z,83.75
2023-03-24T21:37:34.317Z,83.92
2023-03-24T21:40:01.322Z,83.86
2023-03-24T21:42:31.027Z,84.12
2023-03-24T21:44:58.004Z,83.70
2023-03-24T21:47:25.450Z,83.89
2023-03-24T21:49:59.161Z,83.84
2023-03-24T21:52:29.066Z,84.02
2023-03-24T21:55:01.117Z,84.45
2023-03-24T21:57:28.197Z,84.34
2023-03-24T21:59:55.299Z,83.93
2023-03-24T22:02:24.648Z,83.81
2023-03-24T22:04:51.656Z,83.67
2023-03-24T22:07:18.859Z,84.05
2023-03-24T22:09:46.028Z,83.72
2023-03-24T22:12:13.125Z,83.26
2023-03-24T22:14:40.181Z,82.98
2023-03-24T22:17:08.383Z,83.27
2023-03-24T22:19:35.294Z,83.54
2023-03-24T22:22:02.430Z,82.95
2023-03-24T22:24:30.430Z,83.28
2023-03-24T22:26:59.159Z,82.85
2023-03-24T22:29:26.726Z,83.11
2023-03-24T22:31:53.817Z,83.20
2023-03-24T22:34:21.754Z,83.65
2023-03-24T22:36:48.902Z,83.81
2023-03-24T22:39:15.847Z,83.58
2023-03-24T22:41:44.129Z,83.72
2023-03-24T22:44:11.577Z,83.44
2023-03-24T22:46:38.794Z,83.56
2023-03-24T22:49:06.389Z,83.29
2023-03-24T22:51:33.477Z,83.49
2023-03-24T22:54:00.829Z,83.78
2023-03-24T22:56:27.912Z,83.77
2023-03-24T22:58:54.841Z,83.12
2023-03-24T23:01:21.757Z,83.59
2023-03-24T23:03:49.189Z,83.92
2023-03-24T23:06:16.185Z,83.65
2023-03-24T23:08:43.620Z,84.40
2023-03-24T23:11:11.765Z,84.36
2023-03-24T23:13:39.228Z,83.74
2023-03-24T23:16:07.154Z,83.73
2023-03-24T23:18:34.282Z,84.15
2023-03-24T23:21:13.677Z,84.24
2023-03-24T23:23:42.003Z,83.80
2023-03-24T23:26:26.216Z,83.55
2023-03-24T23:28:53.798Z,84.13
2023-03-24T23:31:25.366Z,83.45
2023-03-24T23:33:58.612Z,83.97
2023-03-24T23:36:28.620Z,83.27
2023-03-24T23:38:56.026Z,83.26
2023-03-24T23:41:23.604Z,83.81
2023-03-24T23:43:52.483Z,84.08
2023-03-24T23:46:20.670Z,84.83
2023-03-24T23:48:47.670Z,84.75
2023-03-24T23:51:14.611Z,85.21
2023-03-24T23:53:41.918Z,85.94
2023-03-24T23:56:12.295Z,86.66
2023-03-24T23:58:42.694Z,87.25
